Time;durP1;ratioP1;P1;durP2;ratioP2;P2;SDS_P1;SDS_P2;PMS_P1;PMS_P2;Temp;Humidity;BMP_temperature;BMP_pressure;BME280_temperature;BME280_humidity;BME280_pressure;Samples;Min_cycle;Max_cycle;Signal;HPM_P1;HPM_P2
2024/02/04 15:14:51;;;;;;;8.30;1.60;;;;;;;7.16;69.80;100186.16;104736;1291;600654;-55
2024/02/04 15:17:38;;;;;;;193.40;40.10;;;;;;;7.14;69.64;100181.71;106053;1292;57461;-57
2024/02/04 15:20:24;;;;;;;51.70;29.20;;;;;;;7.18;69.48;100183.73;106114;1292;59014;-57
2024/02/04 15:23:11;;;;;;;5.80;2.50;;;;;;;7.21;69.58;100186.46;106084;1292;70708;-55
2024/02/04 15:25:57;;;;;;;7.90;4.40;;;;;;;7.22;69.66;100179.59;106028;1292;67893;-54
2024/02/04 15:28:45;;;;;;;;;;;;;;;7.22;69.50;100184.21;105986;1289;301116;-55
2024/02/04 15:31:33;;;;;;;5.40;1.60;;;;;;;7.24;69.49;100184.55;105202;1292;58879;-51
2024/02/04 15:34:19;;;;;;;1772.10;654.60;;;;;;;7.25;69.38;100178.88;105978;1292;62329;-56
2024/02/04 15:37:06;;;;;;;10.40;1.20;;;;;;;7.26;69.15;100180.23;105972;1292;72005;-55
2024/02/04 15:39:53;;;;;;;5.70;1.60;;;;;;;7.28;69.22;100171.11;105928;1294;67433;-56
2024/02/04 15:42:41;;;;;;;4.20;1.40;;;;;;;7.28;69.17;100176.42;106001;1292;72572;-57
2024/02/04 15:45:27;;;;;;;5.30;1.60;;;;;;;7.26;69.17;100168.23;105872;1297;58164;-57
2024/02/04 15:48:18;;;;;;;1417.10;561.60;;;;;;;7.26;69.08;100172.34;105749;1292;59036;-57
2024/02/04 15:51:05;;;;;;;7.20;1.80;;;;;;;7.28;68.80;100170.76;105839;1294;71749;-57
2024/02/04 15:53:52;;;;;;;5.60;1.70;;;;;;;7.30;68.97;100165.42;105644;1294;67455;-57
2024/02/04 15:56:43;;;;;;;32.80;12.50;;;;;;;7.30;68.87;100162.85;105731;1294;72400;-52
2024/02/04 15:59:37;;;;;;;4.20;1.60;;;;;;;7.30;68.96;100157.20;105708;1294;58241;-58
2024/02/04 16:02:23;;;;;;;4.80;1.20;;;;;;;7.31;68.92;100161.46;105771;1294;58948;-57
2024/02/04 16:05:10;;;;;;;7.30;2.10;;;;;;;7.32;68.61;100164.38;105784;1294;71401;-55
2024/02/04 16:07:57;;;;;;;32.10;21.40;;;;;;;7.34;68.94;100156.64;105805;1294;68007;-56
2024/02/04 16:10:44;;;;;;;8.60;3.20;;;;;;;7.34;68.60;100159.56;105669;1295;71431;-56
2024/02/04 16:13:34;;;;;;;7.10;1.70;;;;;;;7.33;68.69;100154.25;105825;1294;58618;-57
2024/02/04 16:16:34;;;;;;;33.20;6.90;;;;;;;7.33;68.91;100154.08;98065;1295;5004215;-57
2024/02/04 16:19:20;;;;;;;5.60;1.60;;;;;;;7.33;68.79;100158.89;105804;1292;72938;-57
2024/02/04 16:22:06;;;;;;;6.00;1.50;;;;;;;7.32;68.78;100163.35;105814;1294;68359;-57
2024/02/04 16:24:52;;;;;;;3.70;1.40;;;;;;;7.34;68.46;100158.35;105883;1294;71605;-56
2024/02/04 16:27:38;;;;;;;6.00;1.90;;;;;;;7.35;68.48;100162.46;105937;1295;58574;-54
2024/02/04 16:30:24;;;;;;;5.20;1.40;;;;;;;7.35;68.73;100156.80;105972;1292;60736;-57
2024/02/04 16:33:10;;;;;;;11.70;5.60;;;;;;;7.35;68.78;100157.48;105958;1292;71063;-56
2024/02/04 16:35:57;;;;;;;48.90;32.30;;;;;;;7.34;68.62;100159.89;105933;1293;68474;-56
2024/02/04 16:38:44;;;;;;;4.20;1.70;;;;;;;7.33;68.68;100152.71;105934;1293;71342;-56
2024/02/04 16:41:30;;;;;;;10.40;1.90;;;;;;;7.29;68.93;100158.40;105915;1293;57683;-55
2024/02/04 16:44:16;;;;;;;5.40;1.70;;;;;;;7.29;68.90;100151.02;105993;1292;59939;-57
2024/02/04 16:47:02;;;;;;;8.20;2.80;;;;;;;7.27;68.73;100147.98;105963;1293;72824;-55
2024/02/04 16:49:48;;;;;;;20.30;5.70;;;;;;;7.27;68.87;100153.31;105802;1292;67018;-57
2024/02/04 16:52:34;;;;;;;5.60;1.60;;;;;;;7.27;68.77;100157.25;105971;1292;72560;-56
2024/02/04 16:55:21;;;;;;;6.00;1.70;;;;;;;7.28;68.92;100152.59;105759;1292;58489;-57
2024/02/04 16:58:07;;;;;;;1455.10;549.20;;;;;;;7.27;69.07;100144.55;105764;1294;59463;-56
2024/02/04 17:00:53;;;;;;;5.00;1.90;;;;;;;7.28;68.96;100147.61;105894;1293;72932;-56
2024/02/04 17:03:39;;;;;;;5.80;1.90;;;;;;;7.25;69.12;100145.27;105981;1292;69120;-58
2024/02/04 17:06:26;;;;;;;8.30;1.80;;;;;;;7.24;69.29;100152.66;105960;1293;71346;-57
2024/02/04 17:09:16;;;;;;;167.10;102.60;;;;;;;7.24;69.23;100151.80;106010;1293;57544;-57
2024/02/04 17:12:03;;;;;;;10.20;2.30;;;;;;;7.23;69.47;100146.83;106016;1291;60049;-56
2024/02/04 17:14:49;;;;;;;1536.60;337.50;;;;;;;7.19;69.71;100150.13;105954;1295;72689;-57
2024/02/04 17:17:35;;;;;;;514.90;172.90;;;;;;;7.18;69.92;100140.54;105959;1293;68633;-57
2024/02/04 17:20:27;;;;;;;;;;;;;;;7.16;69.90;100143.13;105962;1291;72057;-56
2024/02/04 17:23:14;;;;;;;10.30;2.40;;;;;;;7.15;69.96;100134.58;105808;1294;59450;-57
2024/02/04 17:26:00;;;;;;;6.30;1.70;;;;;;;7.14;70.13;100136.13;105833;1292;59802;-55
2024/02/04 17:28:47;;;;;;;12.00;4.50;;;;;;;7.15;70.09;100125.49;105737;1294;73204;-56
2024/02/04 17:31:33;;;;;;;15.60;3.50;;;;;;;7.15;70.19;100128.40;105815;1295;67349;-57
2024/02/04 17:34:20;;;;;;;5.60;1.90;;;;;;;7.12;70.21;100138.36;105854;1291;71320;-57
2024/02/04 17:37:07;;;;;;;8.40;2.30;;;;;;;7.15;70.31;100141.95;105744;1298;58556;-56
2024/02/04 17:39:53;;;;;;;7.60;2.40;;;;;;;7.14;70.33;100136.47;105884;1292;58945;-55
2024/02/04 17:42:39;;;;;;;114.20;57.60;;;;;;;7.17;70.31;100134.38;105886;1295;71112;-57
2024/02/04 17:45:26;;;;;;;139.20;38.50;;;;;;;7.19;70.27;100120.65;105773;1294;67897;-57
2024/02/04 17:48:13;;;;;;;6.00;1.90;;;;;;;7.22;70.12;100122.84;105798;1294;71363;-55
2024/02/04 17:50:59;;;;;;;41.00;12.80;;;;;;;7.24;70.14;100129.52;105788;1293;57575;-57
2024/02/04 17:53:45;;;;;;;9.90;2.20;;;;;;;7.24;70.19;100133.11;105811;1293;59997;-55
2024/02/04 17:56:33;;;;;;;1891.10;293.60;;;;;;;7.23;70.21;100130.89;105770;1295;71592;-56
2024/02/04 17:59:20;;;;;;;7.00;1.80;;;;;;;7.26;70.17;100123.67;105810;1292;68367;-57
2024/02/04 18:02:09;;;;;;;5.60;1.80;;;;;;;7.27;70.19;100124.68;105627;1295;72926;-53
2024/02/04 18:04:57;;;;;;;171.10;73.30;;;;;;;7.25;70.25;100127.27;105703;1298;57701;-56
2024/02/04 18:07:43;;;;;;;446.40;244.10;;;;;;;7.26;70.18;100126.92;105811;1294;58962;-57
2024/02/04 18:10:32;;;;;;;1893.00;440.70;;;;;;;7.27;70.25;100123.47;105904;1291;71686;-56
2024/02/04 18:13:18;;;;;;;8.00;1.90;;;;;;;7.30;70.11;100119.82;105784;1294;67479;-56
2024/02/04 18:16:05;;;;;;;8.40;3.00;;;;;;;7.29;70.20;100118.98;105766;1292;71257;-57
2024/02/04 18:18:51;;;;;;;11.70;2.10;;;;;;;7.30;70.22;100112.79;105799;1295;57625;-55
2024/02/04 18:21:37;;;;;;;8.40;1.90;;;;;;;7.29;70.22;100108.52;105750;1294;59090;-55
2024/02/04 18:24:24;;;;;;;7.20;1.90;;;;;;;7.29;70.26;100108.34;105831;1294;71743;-57
2024/02/04 18:27:11;;;;;;;5.90;1.70;;;;;;;7.26;70.32;100104.29;105822;1292;69758;-57
2024/02/04 18:29:58;;;;;;;16.80;4.30;;;;;;;7.25;70.39;100101.90;106016;1289;71447;-57
2024/02/04 18:32:44;;;;;;;8.40;1.90;;;;;;;7.25;70.37;100104.48;105998;1292;57714;-58
2024/02/04 18:35:29;;;;;;;8.40;2.20;;;;;;;7.25;70.38;100097.27;106040;1291;59125;-55
2024/02/04 18:38:15;;;;;;;709.80;164.10;;;;;;;7.26;70.30;100089.72;106056;1290;73424;-57
2024/02/04 18:41:02;;;;;;;7.20;1.70;;;;;;;7.32;70.22;100095.63;106045;1291;68511;-56
2024/02/04 18:43:50;;;;;;;6.70;2.00;;;;;;;7.31;70.27;100090.65;106032;1291;72998;-57
2024/02/04 18:46:39;;;;;;;644.30;172.90;;;;;;;7.31;70.40;100088.09;105883;1291;58429;-57
2024/02/04 18:49:26;;;;;;;9.10;1.80;;;;;;;7.28;70.53;100085.91;105982;1289;59049;-56
2024/02/04 18:52:12;;;;;;;7.50;2.00;;;;;;;7.24;70.74;100087.17;105961;1289;72694;-58
2024/02/04 18:54:58;;;;;;;10.90;2.30;;;;;;;7.24;70.80;100089.58;105971;1291;69165;-57
2024/02/04 18:57:45;;;;;;;4.40;1.60;;;;;;;7.22;70.92;100096.27;105996;1292;72585;-58
2024/02/04 19:00:32;;;;;;;26.80;11.20;;;;;;;7.22;71.01;100090.11;105947;1292;57552;-58
2024/02/04 19:03:18;;;;;;;9.80;2.20;;;;;;;7.21;71.15;100088.40;105872;1289;60209;-57
2024/02/04 19:06:08;;;;;;;6.20;1.60;;;;;;;7.17;71.22;100086.55;105928;1291;71773;-59
2024/02/04 19:08:55;;;;;;;11.30;2.10;;;;;;;7.13;71.31;100088.31;105969;1290;68137;-56
2024/02/04 19:11:44;;;;;;;;;;;;;;;7.13;71.48;100092.43;106075;1290;71303;-57
2024/02/04 19:14:30;;;;;;;6.40;2.30;;;;;;;7.14;71.69;100086.59;105862;1292;148528;-58
2024/02/04 19:17:17;;;;;;;9.90;2.80;;;;;;;7.12;71.79;100081.98;105920;1291;59959;-58
2024/02/04 19:20:05;;;;;;;55.00;14.90;;;;;;;7.11;72.01;100079.08;105843;1292;72406;-58
2024/02/04 19:22:51;;;;;;;528.90;193.50;;;;;;;7.09;72.08;100080.64;105893;1291;67458;-57
2024/02/04 19:25:37;;;;;;;1245.70;358.80;;;;;;;7.07;72.03;100074.66;105929;1292;71333;-57
2024/02/04 19:28:23;;;;;;;8.70;2.40;;;;;;;7.06;72.12;100081.35;105930;1292;58662;-55
2024/02/04 19:31:09;;;;;;;18.80;5.80;;;;;;;7.07;72.15;100079.98;105869;1292;58841;-54
2024/02/04 19:33:56;;;;;;;10.80;2.10;;;;;;;7.08;72.20;100075.34;105887;1291;72960;-58
2024/02/04 19:36:44;;;;;;;7.50;1.70;;;;;;;7.08;72.16;100077.05;105959;1292;66832;-58
2024/02/04 19:39:31;;;;;;;8.90;2.10;;;;;;;7.09;72.19;100082.19;105783;1292;72418;-57
2024/02/04 19:42:17;;;;;;;13.90;2.90;;;;;;;7.08;72.24;100074.32;105865;1292;58039;-56
2024/02/04 19:45:05;;;;;;;6.90;2.00;;;;;;;7.09;72.25;100079.27;105889;1291;60590;-58
2024/02/04 19:47:51;;;;;;;155.90;33.10;;;;;;;7.09;72.26;100070.18;105912;1290;71746;-56
2024/02/04 19:50:37;;;;;;;61.40;52.00;;;;;;;7.09;72.36;100073.28;105930;1291;68846;-57
2024/02/04 19:53:23;;;;;;;9.40;2.20;;;;;;;7.09;72.31;100078.06;105891;1295;70395;-58
2024/02/04 19:56:09;;;;;;;9.00;1.90;;;;;;;7.06;72.37;100080.67;105914;1291;58408;-57
2024/02/04 19:59:03;;;;;;;125.70;37.80;;;;;;;7.07;72.35;100068.50;105889;1291;58992;-57
2024/02/04 20:01:50;;;;;;;1189.60;212.90;;;;;;;7.11;72.40;100066.73;105929;1292;72684;-57
2024/02/04 20:04:36;;;;;;;9.70;1.90;;;;;;;7.11;72.34;100064.69;105918;1292;67856;-56
2024/02/04 20:07:22;;;;;;;7.20;3.60;;;;;;;7.11;72.47;100055.59;105907;1292;73141;-56
2024/02/04 20:10:08;;;;;;;20.50;8.90;;;;;;;7.11;72.47;100053.38;105919;1295;58196;-57
2024/02/04 20:12:54;;;;;;;;;;;;;;;7.11;72.55;100058.00;105976;1292;60272;-58
2024/02/04 20:15:41;;;;;;;18.30;7.20;;;;;;;7.08;72.59;100050.48;105906;1292;72309;-57
2024/02/04 20:18:27;;;;;;;4.90;2.30;;;;;;;7.07;72.68;100049.81;105948;1292;67944;-58
2024/02/04 20:21:13;;;;;;;8.60;2.20;;;;;;;7.08;72.78;100050.84;105972;1292;72178;-59
2024/02/04 20:23:59;;;;;;;51.80;27.70;;;;;;;7.07;72.90;100041.59;105897;1291;86636;-57
2024/02/04 20:26:45;;;;;;;116.90;30.50;;;;;;;7.07;73.01;100045.70;105970;1290;58999;-58
2024/02/04 20:29:33;;;;;;;5.50;1.90;;;;;;;7.05;73.28;100050.86;105995;1291;72217;-57
2024/02/04 20:32:19;;;;;;;8.50;2.10;;;;;;;7.01;73.47;100050.56;106010;1292;67431;-56
2024/02/04 20:35:06;;;;;;;10.40;1.90;;;;;;;7.00;73.58;100049.55;105987;1289;71357;-57
2024/02/04 20:37:57;;;;;;;;;;;;;;;6.96;73.93;100042.21;106009;1291;58571;-57
2024/02/04 20:40:43;;;;;;;5.20;1.60;;;;;;;6.95;74.04;100053.02;105996;1292;58813;-57
2024/02/04 20:43:30;;;;;;;6.00;1.80;;;;;;;6.93;73.91;100042.25;105985;1289;73693;-58
2024/02/04 20:46:15;;;;;;;7.00;1.80;;;;;;;6.91;74.17;100036.78;106070;1289;67209;-58
2024/02/04 20:49:04;;;;;;;5.90;1.70;;;;;;;6.89;74.19;100042.46;105947;1289;71474;-56
2024/02/04 20:51:49;;;;;;;4.20;1.30;;;;;;;6.86;74.02;100036.84;106035;1291;58418;-56
2024/02/04 20:54:35;;;;;;;69.10;15.40;;;;;;;6.86;74.28;100040.27;105988;1292;58828;-57
2024/02/04 20:57:21;;;;;;;7.20;1.70;;;;;;;6.89;74.30;100035.09;105954;1292;74026;-57
2024/02/04 21:00:08;;;;;;;3.80;1.90;;;;;;;6.88;74.38;100035.10;105988;1289;67451;-58
2024/02/04 21:02:54;;;;;;;9.40;1.90;;;;;;;6.90;74.41;100036.27;106023;1289;73270;-57
2024/02/04 21:05:40;;;;;;;7.50;2.00;;;;;;;6.90;74.30;100036.96;105944;1292;59269;-58
2024/02/04 21:08:26;;;;;;;22.80;6.10;;;;;;;6.88;74.38;100033.73;105938;1291;60213;-58
2024/02/04 21:11:23;;;;;;;5.80;1.90;;;;;;;6.89;74.46;100027.21;106041;1289;73674;-58
2024/02/04 21:14:09;;;;;;;7.20;2.00;;;;;;;6.87;74.42;100027.92;105991;1291;68345;-58
2024/02/04 21:16:55;;;;;;;5.10;1.70;;;;;;;6.88;74.45;100022.94;105956;1289;72558;-58
2024/02/04 21:19:41;;;;;;;188.60;63.20;;;;;;;6.91;74.59;100020.51;105954;1292;58502;-54
2024/02/04 21:22:27;;;;;;;7.60;2.00;;;;;;;6.89;75.06;100016.08;105985;1291;58800;-56
2024/02/04 21:25:13;;;;;;;3.80;1.30;;;;;;;6.85;74.97;100004.46;106023;1290;73219;-58
2024/02/04 21:28:00;;;;;;;23.90;16.60;;;;;;;6.85;75.13;100005.66;106043;1291;67500;-58
2024/02/04 21:30:46;;;;;;;9.70;1.70;;;;;;;6.86;75.18;99999.83;105910;1292;72726;-57
2024/02/04 21:33:34;;;;;;;10.20;2.30;;;;;;;6.86;75.38;100002.58;106021;1289;58670;-59
2024/02/04 21:36:20;;;;;;;6.20;1.90;;;;;;;6.86;75.36;100002.58;105944;1292;59025;-58
2024/02/04 21:39:08;;;;;;;1792.50;500.70;;;;;;;6.88;75.61;100002.73;105882;1291;72801;-57
2024/02/04 21:41:54;;;;;;;6.70;2.10;;;;;;;6.89;75.95;99999.46;105990;1291;68440;-58
2024/02/04 21:44:44;;;;;;;4.70;1.50;;;;;;;6.84;76.10;100000.20;105940;1292;71286;-57
2024/02/04 21:47:30;;;;;;;8.00;2.60;;;;;;;6.84;76.16;99999.85;105993;1291;58601;-58
2024/02/04 21:50:16;;;;;;;22.40;10.20;;;;;;;6.81;76.56;99990.63;105969;1291;59293;-57
2024/02/04 21:53:04;;;;;;;5.40;1.80;;;;;;;6.82;76.71;99984.45;105881;1292;73251;-58
2024/02/04 21:55:50;;;;;;;20.60;3.50;;;;;;;6.81;76.77;99989.60;106057;1291;68646;-57
2024/02/04 21:58:36;;;;;;;5.00;1.60;;;;;;;6.81;76.75;99988.07;106032;1289;73656;-57
2024/02/04 22:01:22;;;;;;;11.40;2.80;;;;;;;6.82;76.72;99980.86;106015;1290;58026;-58
2024/02/04 22:04:08;;;;;;;8.60;3.10;;;;;;;6.81;76.66;99970.59;105933;1290;59652;-58
2024/02/04 22:06:55;;;;;;;7.30;3.20;;;;;;;6.78;76.53;99964.98;105954;1291;73208;-58
2024/02/04 22:09:40;;;;;;;9.10;3.10;;;;;;;6.78;76.79;99964.11;105968;1292;66460;-58
2024/02/04 22:12:26;;;;;;;11.40;3.70;;;;;;;6.78;76.79;99961.89;105957;1292;62732;-56
2024/02/04 22:15:13;;;;;;;17.50;6.80;;;;;;;6.80;76.91;99959.81;105830;1289;58894;-58
2024/02/04 22:17:58;;;;;;;6.60;3.00;;;;;;;6.82;76.86;99958.41;105926;1292;59641;-58
2024/02/04 22:20:45;;;;;;;12.80;9.40;;;;;;;6.84;76.94;99953.27;105772;1293;73161;-58
2024/02/04 22:23:31;;;;;;;4.00;1.30;;;;;;;6.86;76.89;99967.45;105649;1295;87809;-57
2024/02/04 22:26:17;;;;;;;37.00;16.50;;;;;;;6.88;76.78;99976.52;105049;1291;309484;-58
2024/02/04 22:29:03;;;;;;;10.10;2.10;;;;;;;6.91;76.79;99964.81;105906;1292;58503;-58
2024/02/04 22:31:49;;;;;;;11.90;2.10;;;;;;;6.93;76.70;99966.17;105933;1291;59553;-57
2024/02/04 22:34:36;;;;;;;15.80;3.60;;;;;;;6.94;76.69;99966.67;105862;1292;74096;-58
2024/02/04 22:37:22;;;;;;;6.50;2.70;;;;;;;6.96;76.76;99968.02;105921;1292;68660;-57
2024/02/04 22:40:09;;;;;;;8.80;2.60;;;;;;;6.98;76.78;99958.58;105826;1290;72048;-58
2024/02/04 22:42:55;;;;;;;5.00;1.90;;;;;;;6.99;76.86;99964.05;105912;1291;58949;-55
2024/02/04 22:45:41;;;;;;;;;;;;;;;6.97;77.23;99956.70;105906;1293;59594;-58
2024/02/04 22:48:28;;;;;;;9.80;4.30;;;;;;;6.96;77.55;99953.80;105862;1292;74139;-57
2024/02/04 22:51:14;;;;;;;7.20;2.20;;;;;;;6.88;78.12;99950.81;105936;1295;68175;-57
2024/02/04 22:54:00;;;;;;;16.90;4.60;;;;;;;6.83;78.28;99957.04;105924;1292;71953;-58
2024/02/04 22:56:46;;;;;;;23.80;4.90;;;;;;;6.74;79.05;99951.16;105891;1292;58924;-57
2024/02/04 22:59:32;;;;;;;7.90;2.70;;;;;;;6.68;79.49;99946.77;105941;1292;59056;-57
2024/02/04 23:02:18;;;;;;;203.20;116.90;;;;;;;6.62;79.50;99941.02;105979;1292;74166;-58
2024/02/04 23:05:05;;;;;;;11.20;2.90;;;;;;;6.59;79.75;99944.66;105927;1291;66703;-57
2024/02/04 23:07:53;;;;;;;5.70;2.30;;;;;;;6.53;80.09;99946.77;105878;1292;71374;-57
2024/02/04 23:10:42;;;;;;;5.30;1.80;;;;;;;6.54;80.98;99944.20;105931;1292;58314;-58
2024/02/04 23:13:28;;;;;;;5.50;1.90;;;;;;;6.50;80.54;99942.52;105755;1294;58845;-57
2024/02/04 23:16:16;;;;;;;7.60;2.00;;;;;;;6.48;80.50;99933.13;105808;1292;73448;-57
2024/02/04 23:19:02;;;;;;;6.80;1.80;;;;;;;6.48;80.99;99925.94;105917;1295;67841;-57
2024/02/04 23:21:48;;;;;;;5.30;2.10;;;;;;;6.47;81.10;99919.95;105827;1292;72708;-57
2024/02/04 23:24:36;;;;;;;;;;;;;;;6.46;81.34;99923.22;105770;1294;58555;-57
2024/02/04 23:27:23;;;;;;;6.20;1.90;;;;;;;6.39;82.33;99919.86;105820;1293;60144;-57
2024/02/04 23:30:10;;;;;;;14.40;3.10;;;;;;;6.37;81.91;99918.86;105861;1292;72626;-58
2024/02/04 23:32:56;;;;;;;4.90;1.90;;;;;;;6.36;82.32;99915.78;105857;1292;68248;-58
2024/02/04 23:35:42;;;;;;;7.70;2.20;;;;;;;6.36;82.54;99914.08;105967;1292;71370;-57
2024/02/04 23:38:28;;;;;;;3.90;1.70;;;;;;;6.36;82.80;99918.02;105820;1292;58555;-57
2024/02/04 23:41:15;;;;;;;5.90;2.10;;;;;;;6.35;83.24;99916.82;105834;1291;58976;-57
2024/02/04 23:44:01;;;;;;;;;;;;;;;6.37;83.99;99912.02;105847;1292;72913;-57
2024/02/04 23:46:47;;;;;;;6.30;3.30;;;;;;;6.38;83.67;99902.08;105882;1292;67479;-58
2024/02/04 23:49:33;;;;;;;5.20;1.70;;;;;;;6.37;84.28;99898.48;105785;1292;73038;-57
2024/02/04 23:52:19;;;;;;;3.10;1.80;;;;;;;6.34;84.04;99889.09;105821;1291;58652;-57
2024/02/04 23:55:05;;;;;;;265.30;139.20;;;;;;;6.32;84.46;99886.38;105818;1291;59134;-57
2024/02/04 23:57:51;;;;;;;4.40;2.10;;;;;;;6.30;84.78;99890.85;105788;1292;73336;-56
